This is the latest recevied weather packets stored in our database for station/object XE2G-31. If no packets are shown the sender has not sent any weather packets the latest 10 day(s).
| Time | Temp. | Humidity | Pressure | Rain* | Wind** | Luminosity | Snow |
|---|---|---|---|---|---|---|---|
| 1777471674 | 25.56° C | 34% | 870 hPa | - | - | - | - |
| 1777470727 | 23.89° C | 39% | 870 hPa | - | - | - | - |
| 1777469780 | 23.33° C | 39% | 870 hPa | - | - | - | - |
| 1777468833 | 23.33° C | 44% | 870 hPa | - | - | - | - |
| 1777467886 | 23.33° C | 47% | 870 hPa | - | - | - | - |
| 1777466940 | 22.78° C | 49% | 870 hPa | - | - | - | - |
| 1777465993 | 22.78° C | 43% | 869 hPa | - | - | - | - |
| 1777465046 | 22.22° C | 50% | 869 hPa | - | - | - | - |
| 1777464099 | 21.11° C | 67% | 870 hPa | - | - | - | - |
| 1777463152 | 21.11° C | 68% | 869 hPa | - | - | - | - |
| 1777462205 | 21.11° C | 76% | 869 hPa | - | - | - | - |
| 1777461259 | 21.11° C | 74% | 869 hPa | - | - | - | - |
| 1777460312 | 21.11° C | 78% | 869 hPa | - | - | - | - |
| 1777459365 | 21.11° C | 79% | 869 hPa | - | - | - | - |
| 1777458418 | 21.11° C | 79% | 869 hPa | - | - | - | - |
| 1777457471 | 21.11° C | 75% | 869 hPa | - | - | - | - |
| 1777456524 | 21.11° C | 78% | 870 hPa | - | - | - | - |
| 1777455578 | 21.11° C | 82% | 870 hPa | - | - | - | - |
| 1777454631 | 21.11° C | 81% | 870 hPa | - | - | - | - |
| 1777453684 | 21.11° C | 82% | 870 hPa | - | - | - | - |
| 1777452737 | 21.67° C | 80% | 870 hPa | - | - | - | - |
| 1777451790 | 21.67° C | 77% | 870 hPa | - | - | - | - |
| 1777450844 | 21.67° C | 76% | 870 hPa | - | - | - | - |
| 1777449897 | 22.22° C | 72% | 870 hPa | - | - | - | - |
| 1777448950 | 21.67° C | 75% | 870 hPa | - | - | - | - |
* Rain since midnight (hover to see other rain measurements)
** Current wind speed in m/s (hover to see current wind gust speed)